Airfield :
LOGIN :

Register | Disclaimer

   EN    FR    IT 

 










Legend :    VFR   Marginal VFR   IFR   Intensive IFR   Very Intensive IFR
Visi :
Ceiling :
>= 8 km
>= 3000ft
5 to 8 km
1000 to 3000 ft
1500m to 5 km
500 to 1000 ft
800 to 1500m
200 to 500 ft
< 800m
< 200 ft
Symbols :   Thunderstorms  Fog  Heavy snow  Heavy precipitations  Wind > 20 kt
SIGMETs :     Misc.  Thunderstorms  Icing  Turbulence  Mountain Waves  Volcanic Ashes






- Airport Elevation : 876 ft
- IATA code : MBX


LJMB - Maribor

CURRENT METAR :
  • 260600Z 35005KT 280V020 9999 -RA FEW034 OVC041 14/12 Q1018

EXPIRED METARs :
  • 260530Z AUTO 01005KT 330V050 9999 DZ OVC042/// 14/12 Q1018
  • 260500Z AUTO 36007KT 9999 -RA OVC049/// 14/12 Q1018 RERA
  • 260430Z AUTO 36009KT 9999 RA NSC 14/12 Q1017
  • 260400Z AUTO 01007KT 9999 RA NSC 14/12 Q1018
  • 260330Z AUTO 35010KT 9999 -SHRA NSC 14/13 Q1017
  • 260300Z AUTO 03008KT 9999 -SHRA NSC 14/13 Q1017 RESHRA
  • 260230Z AUTO 34010KT 9999 -RA NSC 14/12 Q1017 RERA
  • 260200Z AUTO 33009KT 7000 RA NSC 14/13 Q1018 RERA
  • 260130Z AUTO 07005KT 030V100 4000 +RA OVC049/// 14/13 Q1019

TAF TAF LJMB
Valid from the 26 at 06:00 until the 27 at 06:00 UTC


260500Z 2606/2706 36008KT 9999 FEW050
TEMPO 2606/2612 RA
PROB30
TEMPO 2606/2609 5000 TSRA BKN040CB
PROB30
TEMPO 2606/2616 SHRA BKN040TCU
PROB30
TEMPO 2702/2706 0500 FG VV002



MET'MAP, your aeronautical weather chart ! - Copyright ORBIFLY December 2007 - Disclaimer

ORBIFLY MET'MAP TEAM :

Programming & Development : Alexandra Zaïnal
Original concept : Baudouin d'Aumeries
Technical & hardware support : Manuel Goepfert
Assistance : Marc-Olivier Méhu




SOURCES & CREDITS :

   NOAA